Terminal Aerodrome Forecast
Issued by NWS Omaha/Valley, NE

Home | Current Version | Previous Version | Text Only | Print | Product List | Glossary On
Versions: 1 2 3 4 5 6 7 8 9 10 11 12 13 14 15 16 17 18 19 20 21 22 23 24 25 26 27 28 29 30 31 32 33 34 35 36 37 38 39 40
000
FTUS43 KOAX 271120
TAFLNK
TAF
KLNK 271120Z 2712/2812 01005KT P6SM OVC025
      TEMPO 2712/2714 -RA
     FM272100 02005KT P6SM SCT035
      TEMPO 2721/2723 BKN030=

USA.gov is the U.S. government's official web portal to all federal, state and local government web resources and services.